Logo Brunsvigian Airlines

Die löwenstarke Airline aus Braunschweig

Charts auf der Seite von VATEUD

LSZS 041650Z 25009KT 9999 SCT070 17/09 Q1019

flugnummerleerzeichenankunftleerzeichenplanmaessig
ABS201__NIZZA____________07doppelpunkt40

flugnummerleerzeichenankunftleerzeichenplanmaessig
ABS200__BRAUNSCHWEIG_____07doppelpunkt10

Kontakt   Impressum

Valid HTML 4.01 Transitional CSS ist valide!